sensor_id;sensor_type;location;lat;lon;timestamp;P1;durP1;ratioP1;P2;durP2;ratioP2
39300;SDS011;25019;42.626;23.380;2024-03-29T00:00:57;3.93;;;1.30;;
39300;SDS011;25019;42.626;23.380;2024-03-29T00:03:25;5.37;;;1.40;;
39300;SDS011;25019;42.626;23.380;2024-03-29T00:05:50;2.70;;;1.20;;
39300;SDS011;25019;42.626;23.380;2024-03-29T00:08:16;5.03;;;1.80;;
39300;SDS011;25019;42.626;23.380;2024-03-29T00:10:42;2.63;;;1.30;;
39300;SDS011;25019;42.626;23.380;2024-03-29T00:13:07;1.90;;;1.23;;
39300;SDS011;25019;42.626;23.380;2024-03-29T00:15:33;4.23;;;1.20;;
39300;SDS011;25019;42.626;23.380;2024-03-29T00:17:58;4.07;;;1.17;;
39300;SDS011;25019;42.626;23.380;2024-03-29T00:20:24;4.30;;;1.13;;
39300;SDS011;25019;42.626;23.380;2024-03-29T00:22:50;3.37;;;0.90;;
39300;SDS011;25019;42.626;23.380;2024-03-29T00:25:16;3.23;;;1.50;;
39300;SDS011;25019;42.626;23.380;2024-03-29T00:27:41;6.03;;;1.40;;
39300;SDS011;25019;42.626;23.380;2024-03-29T00:30:09;3.70;;;1.87;;
39300;SDS011;25019;42.626;23.380;2024-03-29T00:32:35;4.17;;;1.60;;
39300;SDS011;25019;42.626;23.380;2024-03-29T00:35:01;4.10;;;1.30;;
39300;SDS011;25019;42.626;23.380;2024-03-29T00:37:27;2.83;;;1.10;;
39300;SDS011;25019;42.626;23.380;2024-03-29T00:39:53;2.23;;;0.97;;
39300;SDS011;25019;42.626;23.380;2024-03-29T00:42:18;4.63;;;1.23;;
39300;SDS011;25019;42.626;23.380;2024-03-29T00:44:46;2.63;;;1.50;;
39300;SDS011;25019;42.626;23.380;2024-03-29T00:47:12;2.07;;;1.20;;
39300;SDS011;25019;42.626;23.380;2024-03-29T00:49:38;6.17;;;1.80;;
39300;SDS011;25019;42.626;23.380;2024-03-29T00:52:04;6.07;;;1.60;;
39300;SDS011;25019;42.626;23.380;2024-03-29T00:54:30;3.83;;;2.00;;
39300;SDS011;25019;42.626;23.380;2024-03-29T00:56:56;3.43;;;1.30;;
39300;SDS011;25019;42.626;23.380;2024-03-29T00:59:22;5.47;;;1.60;;
39300;SDS011;25019;42.626;23.380;2024-03-29T01:01:48;8.53;;;1.60;;
39300;SDS011;25019;42.626;23.380;2024-03-29T01:04:15;5.67;;;1.20;;
39300;SDS011;25019;42.626;23.380;2024-03-29T01:06:41;4.33;;;1.40;;
39300;SDS011;25019;42.626;23.380;2024-03-29T01:09:07;2.97;;;1.03;;
39300;SDS011;25019;42.626;23.380;2024-03-29T01:11:37;3.87;;;1.20;;
39300;SDS011;25019;42.626;23.380;2024-03-29T01:14:03;3.20;;;1.50;;
39300;SDS011;25019;42.626;23.380;2024-03-29T01:16:30;2.93;;;1.47;;
39300;SDS011;25019;42.626;23.380;2024-03-29T01:18:59;2.83;;;1.33;;
39300;SDS011;25019;42.626;23.380;2024-03-29T01:21:26;4.20;;;1.30;;
39300;SDS011;25019;42.626;23.380;2024-03-29T01:23:52;2.10;;;1.10;;
39300;SDS011;25019;42.626;23.380;2024-03-29T01:26:17;3.47;;;1.30;;
39300;SDS011;25019;42.626;23.380;2024-03-29T01:28:43;3.60;;;0.93;;
39300;SDS011;25019;42.626;23.380;2024-03-29T01:31:10;2.67;;;1.10;;
39300;SDS011;25019;42.626;23.380;2024-03-29T01:33:37;4.37;;;1.33;;
39300;SDS011;25019;42.626;23.380;2024-03-29T01:36:03;2.83;;;1.17;;
39300;SDS011;25019;42.626;23.380;2024-03-29T01:38:29;3.10;;;1.17;;
39300;SDS011;25019;42.626;23.380;2024-03-29T01:40:55;3.17;;;1.10;;
39300;SDS011;25019;42.626;23.380;2024-03-29T01:43:21;4.90;;;1.23;;
39300;SDS011;25019;42.626;23.380;2024-03-29T01:45:47;4.00;;;1.40;;
39300;SDS011;25019;42.626;23.380;2024-03-29T01:48:15;3.27;;;1.40;;
39300;SDS011;25019;42.626;23.380;2024-03-29T01:50:42;1.90;;;0.93;;
39300;SDS011;25019;42.626;23.380;2024-03-29T01:53:08;1.30;;;0.83;;
39300;SDS011;25019;42.626;23.380;2024-03-29T01:55:37;5.53;;;1.80;;
39300;SDS011;25019;42.626;23.380;2024-03-29T01:58:03;2.83;;;1.33;;
39300;SDS011;25019;42.626;23.380;2024-03-29T02:00:30;4.13;;;1.17;;
39300;SDS011;25019;42.626;23.380;2024-03-29T02:03:00;5.00;;;1.10;;
39300;SDS011;25019;42.626;23.380;2024-03-29T02:05:27;3.57;;;1.20;;
39300;SDS011;25019;42.626;23.380;2024-03-29T02:07:54;4.03;;;1.10;;
39300;SDS011;25019;42.626;23.380;2024-03-29T02:10:20;3.77;;;1.30;;
39300;SDS011;25019;42.626;23.380;2024-03-29T02:12:46;3.00;;;1.27;;
39300;SDS011;25019;42.626;23.380;2024-03-29T02:15:15;6.37;;;1.40;;
39300;SDS011;25019;42.626;23.380;2024-03-29T02:17:41;3.50;;;1.03;;
39300;SDS011;25019;42.626;23.380;2024-03-29T02:20:08;1.83;;;1.00;;
39300;SDS011;25019;42.626;23.380;2024-03-29T02:22:35;3.20;;;1.07;;
39300;SDS011;25019;42.626;23.380;2024-03-29T02:25:05;3.97;;;1.33;;
39300;SDS011;25019;42.626;23.380;2024-03-29T02:27:31;6.13;;;1.03;;
39300;SDS011;25019;42.626;23.380;2024-03-29T02:29:56;2.30;;;1.27;;
39300;SDS011;25019;42.626;23.380;2024-03-29T02:32:22;1.57;;;0.93;;
39300;SDS011;25019;42.626;23.380;2024-03-29T02:34:48;3.13;;;1.07;;
39300;SDS011;25019;42.626;23.380;2024-03-29T02:37:13;2.97;;;0.80;;
39300;SDS011;25019;42.626;23.380;2024-03-29T02:39:39;2.73;;;1.20;;
39300;SDS011;25019;42.626;23.380;2024-03-29T02:42:05;4.70;;;2.07;;
39300;SDS011;25019;42.626;23.380;2024-03-29T02:44:31;2.53;;;1.30;;
39300;SDS011;25019;42.626;23.380;2024-03-29T02:46:56;3.97;;;1.10;;
39300;SDS011;25019;42.626;23.380;2024-03-29T02:49:22;3.83;;;1.07;;
39300;SDS011;25019;42.626;23.380;2024-03-29T02:51:48;1.67;;;1.00;;
39300;SDS011;25019;42.626;23.380;2024-03-29T02:54:16;4.57;;;1.20;;
39300;SDS011;25019;42.626;23.380;2024-03-29T02:56:42;3.70;;;1.00;;
39300;SDS011;25019;42.626;23.380;2024-03-29T02:59:07;1.43;;;0.80;;
39300;SDS011;25019;42.626;23.380;2024-03-29T03:01:33;4.70;;;1.40;;
39300;SDS011;25019;42.626;23.380;2024-03-29T03:03:58;2.70;;;1.20;;
39300;SDS011;25019;42.626;23.380;2024-03-29T03:06:24;3.13;;;1.30;;
39300;SDS011;25019;42.626;23.380;2024-03-29T03:08:50;4.10;;;1.03;;
39300;SDS011;25019;42.626;23.380;2024-03-29T03:11:34;6.10;;;1.90;;
39300;SDS011;25019;42.626;23.380;2024-03-29T03:14:00;3.43;;;1.70;;
39300;SDS011;25019;42.626;23.380;2024-03-29T03:16:25;11.80;;;4.93;;
39300;SDS011;25019;42.626;23.380;2024-03-29T03:18:51;29.40;;;10.80;;
39300;SDS011;25019;42.626;23.380;2024-03-29T03:21:17;17.83;;;6.47;;
39300;SDS011;25019;42.626;23.380;2024-03-29T03:23:42;9.93;;;4.20;;
39300;SDS011;25019;42.626;23.380;2024-03-29T03:26:08;5.97;;;2.57;;
39300;SDS011;25019;42.626;23.380;2024-03-29T03:28:34;5.10;;;1.70;;
39300;SDS011;25019;42.626;23.380;2024-03-29T03:31:00;4.27;;;1.80;;
39300;SDS011;25019;42.626;23.380;2024-03-29T03:33:26;4.57;;;1.80;;
39300;SDS011;25019;42.626;23.380;2024-03-29T03:35:52;5.17;;;1.73;;
39300;SDS011;25019;42.626;23.380;2024-03-29T03:38:17;3.97;;;1.30;;
39300;SDS011;25019;42.626;23.380;2024-03-29T03:40:43;5.70;;;1.67;;
39300;SDS011;25019;42.626;23.380;2024-03-29T03:43:09;4.13;;;1.73;;
39300;SDS011;25019;42.626;23.380;2024-03-29T03:45:38;3.67;;;1.40;;
39300;SDS011;25019;42.626;23.380;2024-03-29T03:48:05;2.20;;;1.10;;
39300;SDS011;25019;42.626;23.380;2024-03-29T03:50:32;4.00;;;2.10;;
39300;SDS011;25019;42.626;23.380;2024-03-29T03:52:58;1.80;;;1.37;;
39300;SDS011;25019;42.626;23.380;2024-03-29T03:55:24;5.30;;;1.77;;
39300;SDS011;25019;42.626;23.380;2024-03-29T03:57:50;3.50;;;1.50;;
39300;SDS011;25019;42.626;23.380;2024-03-29T04:00:19;3.50;;;1.37;;
39300;SDS011;25019;42.626;23.380;2024-03-29T04:02:49;1.37;;;0.93;;
39300;SDS011;25019;42.626;23.380;2024-03-29T04:05:16;3.43;;;1.07;;
39300;SDS011;25019;42.626;23.380;2024-03-29T04:07:45;4.07;;;1.07;;
39300;SDS011;25019;42.626;23.380;2024-03-29T04:10:11;4.83;;;1.00;;
39300;SDS011;25019;42.626;23.380;2024-03-29T04:12:37;3.30;;;1.13;;
39300;SDS011;25019;42.626;23.380;2024-03-29T04:15:03;4.17;;;1.50;;
39300;SDS011;25019;42.626;23.380;2024-03-29T04:17:29;1.90;;;0.70;;
39300;SDS011;25019;42.626;23.380;2024-03-29T04:19:56;4.27;;;2.30;;
39300;SDS011;25019;42.626;23.380;2024-03-29T04:22:22;7.47;;;2.00;;
39300;SDS011;25019;42.626;23.380;2024-03-29T04:24:48;3.03;;;1.17;;
39300;SDS011;25019;42.626;23.380;2024-03-29T04:27:14;4.43;;;1.40;;
39300;SDS011;25019;42.626;23.380;2024-03-29T04:29:40;4.90;;;1.77;;
39300;SDS011;25019;42.626;23.380;2024-03-29T04:32:06;2.70;;;1.33;;
39300;SDS011;25019;42.626;23.380;2024-03-29T04:34:33;7.07;;;3.17;;
39300;SDS011;25019;42.626;23.380;2024-03-29T04:36:59;1.90;;;1.20;;
39300;SDS011;25019;42.626;23.380;2024-03-29T04:39:24;5.33;;;1.13;;
39300;SDS011;25019;42.626;23.380;2024-03-29T04:41:50;4.97;;;1.23;;
39300;SDS011;25019;42.626;23.380;2024-03-29T04:44:25;3.20;;;1.50;;
39300;SDS011;25019;42.626;23.380;2024-03-29T04:46:53;3.13;;;1.60;;
39300;SDS011;25019;42.626;23.380;2024-03-29T04:49:19;2.43;;;1.27;;
39300;SDS011;25019;42.626;23.380;2024-03-29T04:51:58;4.60;;;1.70;;
39300;SDS011;25019;42.626;23.380;2024-03-29T04:54:25;3.13;;;1.90;;
39300;SDS011;25019;42.626;23.380;2024-03-29T04:56:51;4.60;;;1.30;;
39300;SDS011;25019;42.626;23.380;2024-03-29T04:59:17;4.57;;;1.13;;
39300;SDS011;25019;42.626;23.380;2024-03-29T05:01:43;2.67;;;1.30;;
39300;SDS011;25019;42.626;23.380;2024-03-29T05:04:09;4.07;;;1.10;;
39300;SDS011;25019;42.626;23.380;2024-03-29T05:06:36;5.40;;;1.47;;
39300;SDS011;25019;42.626;23.380;2024-03-29T05:09:01;8.03;;;1.90;;
39300;SDS011;25019;42.626;23.380;2024-03-29T05:11:27;8.60;;;1.83;;
39300;SDS011;25019;42.626;23.380;2024-03-29T05:13:53;10.77;;;2.20;;
39300;SDS011;25019;42.626;23.380;2024-03-29T05:16:18;10.70;;;2.30;;
39300;SDS011;25019;42.626;23.380;2024-03-29T05:18:47;6.03;;;1.93;;
39300;SDS011;25019;42.626;23.380;2024-03-29T05:21:13;4.93;;;1.10;;
39300;SDS011;25019;42.626;23.380;2024-03-29T05:23:38;4.03;;;1.20;;
39300;SDS011;25019;42.626;23.380;2024-03-29T05:26:04;3.17;;;1.27;;
39300;SDS011;25019;42.626;23.380;2024-03-29T05:28:29;5.03;;;1.60;;
39300;SDS011;25019;42.626;23.380;2024-03-29T05:30:55;5.57;;;1.53;;
39300;SDS011;25019;42.626;23.380;2024-03-29T05:33:21;2.97;;;1.60;;
39300;SDS011;25019;42.626;23.380;2024-03-29T05:35:47;7.10;;;1.70;;
39300;SDS011;25019;42.626;23.380;2024-03-29T05:38:12;7.53;;;1.70;;
39300;SDS011;25019;42.626;23.380;2024-03-29T05:40:38;5.43;;;1.37;;
39300;SDS011;25019;42.626;23.380;2024-03-29T05:43:04;4.53;;;1.80;;
39300;SDS011;25019;42.626;23.380;2024-03-29T05:45:30;5.87;;;1.40;;
39300;SDS011;25019;42.626;23.380;2024-03-29T05:47:56;7.43;;;1.60;;
39300;SDS011;25019;42.626;23.380;2024-03-29T05:50:24;4.17;;;1.73;;
39300;SDS011;25019;42.626;23.380;2024-03-29T05:52:51;7.97;;;2.37;;
39300;SDS011;25019;42.626;23.380;2024-03-29T05:55:17;6.50;;;1.00;;
39300;SDS011;25019;42.626;23.380;2024-03-29T05:57:44;7.07;;;1.57;;
39300;SDS011;25019;42.626;23.380;2024-03-29T06:00:13;2.00;;;0.90;;
39300;SDS011;25019;42.626;23.380;2024-03-29T06:02:40;2.73;;;1.07;;
39300;SDS011;25019;42.626;23.380;2024-03-29T06:05:07;2.93;;;1.20;;
39300;SDS011;25019;42.626;23.380;2024-03-29T06:07:34;6.63;;;1.40;;
39300;SDS011;25019;42.626;23.380;2024-03-29T06:10:00;5.23;;;1.37;;
39300;SDS011;25019;42.626;23.380;2024-03-29T06:12:29;7.90;;;1.50;;
39300;SDS011;25019;42.626;23.380;2024-03-29T06:14:54;10.30;;;2.10;;
39300;SDS011;25019;42.626;23.380;2024-03-29T06:17:39;5.20;;;1.10;;
39300;SDS011;25019;42.626;23.380;2024-03-29T06:20:04;5.50;;;1.00;;
39300;SDS011;25019;42.626;23.380;2024-03-29T06:22:31;7.33;;;1.30;;
39300;SDS011;25019;42.626;23.380;2024-03-29T06:24:56;2.33;;;0.97;;
39300;SDS011;25019;42.626;23.380;2024-03-29T06:27:24;4.50;;;1.40;;
39300;SDS011;25019;42.626;23.380;2024-03-29T06:29:51;3.73;;;1.20;;
39300;SDS011;25019;42.626;23.380;2024-03-29T06:32:16;7.73;;;2.10;;
39300;SDS011;25019;42.626;23.380;2024-03-29T06:34:46;3.97;;;1.00;;
39300;SDS011;25019;42.626;23.380;2024-03-29T06:37:12;4.93;;;1.47;;
39300;SDS011;25019;42.626;23.380;2024-03-29T06:39:38;5.67;;;1.47;;
39300;SDS011;25019;42.626;23.380;2024-03-29T06:42:05;4.40;;;1.30;;
39300;SDS011;25019;42.626;23.380;2024-03-29T06:44:32;3.57;;;1.10;;
39300;SDS011;25019;42.626;23.380;2024-03-29T06:46:59;3.43;;;0.93;;
39300;SDS011;25019;42.626;23.380;2024-03-29T06:49:24;5.57;;;1.57;;
39300;SDS011;25019;42.626;23.380;2024-03-29T06:51:50;2.67;;;1.10;;
39300;SDS011;25019;42.626;23.380;2024-03-29T06:54:16;4.73;;;1.10;;
39300;SDS011;25019;42.626;23.380;2024-03-29T06:56:41;4.00;;;0.80;;
39300;SDS011;25019;42.626;23.380;2024-03-29T06:59:07;2.83;;;0.90;;
39300;SDS011;25019;42.626;23.380;2024-03-29T07:01:33;4.53;;;0.83;;
39300;SDS011;25019;42.626;23.380;2024-03-29T07:03:59;2.40;;;0.90;;
39300;SDS011;25019;42.626;23.380;2024-03-29T07:06:24;4.47;;;0.60;;
39300;SDS011;25019;42.626;23.380;2024-03-29T07:08:50;4.23;;;0.83;;
39300;SDS011;25019;42.626;23.380;2024-03-29T07:11:16;5.90;;;1.40;;
39300;SDS011;25019;42.626;23.380;2024-03-29T07:13:41;2.73;;;0.80;;
39300;SDS011;25019;42.626;23.380;2024-03-29T07:16:07;3.13;;;1.10;;
39300;SDS011;25019;42.626;23.380;2024-03-29T07:18:33;3.90;;;0.93;;
39300;SDS011;25019;42.626;23.380;2024-03-29T07:20:59;4.33;;;1.47;;
39300;SDS011;25019;42.626;23.380;2024-03-29T07:23:24;5.50;;;1.00;;
39300;SDS011;25019;42.626;23.380;2024-03-29T07:26:23;3.03;;;1.07;;
39300;SDS011;25019;42.626;23.380;2024-03-29T07:28:42;3.00;;;0.87;;
39300;SDS011;25019;42.626;23.380;2024-03-29T07:31:08;2.40;;;1.07;;
39300;SDS011;25019;42.626;23.380;2024-03-29T07:33:34;2.77;;;1.17;;
39300;SDS011;25019;42.626;23.380;2024-03-29T07:36:00;5.23;;;1.17;;
39300;SDS011;25019;42.626;23.380;2024-03-29T07:38:26;2.50;;;0.70;;
39300;SDS011;25019;42.626;23.380;2024-03-29T07:40:51;2.97;;;0.70;;
39300;SDS011;25019;42.626;23.380;2024-03-29T07:43:18;3.80;;;1.07;;
39300;SDS011;25019;42.626;23.380;2024-03-29T07:45:44;3.20;;;1.10;;
39300;SDS011;25019;42.626;23.380;2024-03-29T07:48:13;2.63;;;1.00;;
39300;SDS011;25019;42.626;23.380;2024-03-29T07:50:43;3.17;;;0.80;;
39300;SDS011;25019;42.626;23.380;2024-03-29T07:53:10;2.80;;;0.70;;
39300;SDS011;25019;42.626;23.380;2024-03-29T07:55:36;3.33;;;0.80;;
39300;SDS011;25019;42.626;23.380;2024-03-29T07:58:03;3.20;;;0.93;;
39300;SDS011;25019;42.626;23.380;2024-03-29T08:00:33;3.17;;;1.53;;
39300;SDS011;25019;42.626;23.380;2024-03-29T08:02:59;4.40;;;1.20;;
39300;SDS011;25019;42.626;23.380;2024-03-29T08:05:25;3.53;;;1.13;;
39300;SDS011;25019;42.626;23.380;2024-03-29T08:07:52;2.90;;;1.20;;
39300;SDS011;25019;42.626;23.380;2024-03-29T08:10:18;3.23;;;1.20;;
39300;SDS011;25019;42.626;23.380;2024-03-29T08:12:43;4.07;;;1.13;;
39300;SDS011;25019;42.626;23.380;2024-03-29T08:15:09;5.60;;;1.23;;
39300;SDS011;25019;42.626;23.380;2024-03-29T08:17:35;4.47;;;1.17;;
39300;SDS011;25019;42.626;23.380;2024-03-29T08:20:01;8.23;;;1.60;;
39300;SDS011;25019;42.626;23.380;2024-03-29T08:22:28;5.23;;;1.90;;
39300;SDS011;25019;42.626;23.380;2024-03-29T08:24:54;4.50;;;1.07;;
39300;SDS011;25019;42.626;23.380;2024-03-29T08:27:20;3.60;;;0.93;;
39300;SDS011;25019;42.626;23.380;2024-03-29T08:29:46;2.97;;;1.13;;
39300;SDS011;25019;42.626;23.380;2024-03-29T08:32:14;2.63;;;1.00;;
39300;SDS011;25019;42.626;23.380;2024-03-29T08:34:40;1.13;;;0.60;;
39300;SDS011;25019;42.626;23.380;2024-03-29T08:37:05;2.33;;;0.80;;
39300;SDS011;25019;42.626;23.380;2024-03-29T08:39:31;2.10;;;0.70;;
39300;SDS011;25019;42.626;23.380;2024-03-29T08:42:00;3.87;;;1.00;;
39300;SDS011;25019;42.626;23.380;2024-03-29T08:44:31;8.37;;;1.00;;
39300;SDS011;25019;42.626;23.380;2024-03-29T08:46:57;3.00;;;0.67;;
39300;SDS011;25019;42.626;23.380;2024-03-29T08:49:24;3.57;;;1.03;;
39300;SDS011;25019;42.626;23.380;2024-03-29T08:51:50;4.97;;;0.97;;
39300;SDS011;25019;42.626;23.380;2024-03-29T08:54:16;1.50;;;0.60;;
39300;SDS011;25019;42.626;23.380;2024-03-29T08:56:41;1.70;;;0.70;;
39300;SDS011;25019;42.626;23.380;2024-03-29T08:59:07;2.40;;;1.10;;
39300;SDS011;25019;42.626;23.380;2024-03-29T09:01:37;3.53;;;1.10;;
39300;SDS011;25019;42.626;23.380;2024-03-29T09:04:06;2.60;;;0.90;;
39300;SDS011;25019;42.626;23.380;2024-03-29T09:06:35;6.33;;;1.83;;
39300;SDS011;25019;42.626;23.380;2024-03-29T09:09:01;4.07;;;1.00;;
39300;SDS011;25019;42.626;23.380;2024-03-29T09:11:28;4.20;;;0.90;;
39300;SDS011;25019;42.626;23.380;2024-03-29T09:13:54;4.23;;;0.90;;
39300;SDS011;25019;42.626;23.380;2024-03-29T09:16:21;2.43;;;1.33;;
39300;SDS011;25019;42.626;23.380;2024-03-29T09:18:47;2.00;;;0.70;;
39300;SDS011;25019;42.626;23.380;2024-03-29T09:21:13;3.13;;;0.93;;
39300;SDS011;25019;42.626;23.380;2024-03-29T09:23:38;7.60;;;1.77;;
39300;SDS011;25019;42.626;23.380;2024-03-29T09:26:07;2.90;;;0.80;;
39300;SDS011;25019;42.626;23.380;2024-03-29T09:28:33;2.00;;;0.70;;
39300;SDS011;25019;42.626;23.380;2024-03-29T09:31:00;3.77;;;0.70;;
39300;SDS011;25019;42.626;23.380;2024-03-29T09:33:27;1.90;;;0.60;;
39300;SDS011;25019;42.626;23.380;2024-03-29T09:35:53;2.50;;;0.80;;
39300;SDS011;25019;42.626;23.380;2024-03-29T09:38:19;1.20;;;0.33;;
39300;SDS011;25019;42.626;23.380;2024-03-29T09:40:46;2.30;;;0.60;;
39300;SDS011;25019;42.626;23.380;2024-03-29T09:43:12;2.93;;;0.60;;
39300;SDS011;25019;42.626;23.380;2024-03-29T09:45:41;5.03;;;0.80;;
39300;SDS011;25019;42.626;23.380;2024-03-29T09:48:08;3.07;;;0.80;;
39300;SDS011;25019;42.626;23.380;2024-03-29T09:50:34;2.50;;;0.60;;
39300;SDS011;25019;42.626;23.380;2024-03-29T09:53:06;4.70;;;1.20;;
39300;SDS011;25019;42.626;23.380;2024-03-29T09:55:33;4.20;;;0.87;;
39300;SDS011;25019;42.626;23.380;2024-03-29T09:58:02;6.47;;;1.20;;
39300;SDS011;25019;42.626;23.380;2024-03-29T10:00:28;10.10;;;1.00;;
39300;SDS011;25019;42.626;23.380;2024-03-29T10:02:55;5.37;;;1.07;;
39300;SDS011;25019;42.626;23.380;2024-03-29T10:05:25;1.87;;;0.80;;
39300;SDS011;25019;42.626;23.380;2024-03-29T10:07:53;2.73;;;0.93;;
39300;SDS011;25019;42.626;23.380;2024-03-29T10:10:19;3.10;;;0.70;;
39300;SDS011;25019;42.626;23.380;2024-03-29T10:12:45;5.33;;;1.10;;
39300;SDS011;25019;42.626;23.380;2024-03-29T10:15:11;3.77;;;1.23;;
39300;SDS011;25019;42.626;23.380;2024-03-29T10:17:46;1.50;;;0.70;;
39300;SDS011;25019;42.626;23.380;2024-03-29T10:20:16;2.97;;;0.93;;
39300;SDS011;25019;42.626;23.380;2024-03-29T10:22:43;5.57;;;0.90;;
39300;SDS011;25019;42.626;23.380;2024-03-29T10:25:10;7.17;;;0.90;;
39300;SDS011;25019;42.626;23.380;2024-03-29T10:27:38;3.27;;;1.03;;
39300;SDS011;25019;42.626;23.380;2024-03-29T10:30:05;5.70;;;1.00;;
39300;SDS011;25019;42.626;23.380;2024-03-29T10:32:34;3.63;;;1.00;;
39300;SDS011;25019;42.626;23.380;2024-03-29T10:35:02;3.57;;;0.80;;
39300;SDS011;25019;42.626;23.380;2024-03-29T10:37:28;4.30;;;0.87;;
39300;SDS011;25019;42.626;23.380;2024-03-29T10:39:57;4.13;;;1.00;;
39300;SDS011;25019;42.626;23.380;2024-03-29T10:42:23;5.43;;;1.10;;
39300;SDS011;25019;42.626;23.380;2024-03-29T10:44:53;5.10;;;1.30;;
39300;SDS011;25019;42.626;23.380;2024-03-29T10:47:21;3.10;;;1.00;;
39300;SDS011;25019;42.626;23.380;2024-03-29T10:49:49;4.47;;;1.00;;
39300;SDS011;25019;42.626;23.380;2024-03-29T10:52:16;3.87;;;1.10;;
39300;SDS011;25019;42.626;23.380;2024-03-29T10:54:44;4.73;;;1.10;;
39300;SDS011;25019;42.626;23.380;2024-03-29T10:57:12;2.23;;;0.90;;
39300;SDS011;25019;42.626;23.380;2024-03-29T10:59:48;1.70;;;0.63;;
39300;SDS011;25019;42.626;23.380;2024-03-29T11:02:35;4.17;;;1.00;;
39300;SDS011;25019;42.626;23.380;2024-03-29T11:05:12;3.53;;;1.03;;
39300;SDS011;25019;42.626;23.380;2024-03-29T11:07:42;3.53;;;1.13;;
39300;SDS011;25019;42.626;23.380;2024-03-29T11:10:23;1.83;;;0.80;;
39300;SDS011;25019;42.626;23.380;2024-03-29T11:12:58;5.77;;;1.33;;
39300;SDS011;25019;42.626;23.380;2024-03-29T11:15:37;3.83;;;1.47;;
39300;SDS011;25019;42.626;23.380;2024-03-29T11:18:05;6.57;;;0.80;;
39300;SDS011;25019;42.626;23.380;2024-03-29T11:20:33;3.60;;;1.20;;
39300;SDS011;25019;42.626;23.380;2024-03-29T11:23:07;6.17;;;1.27;;
39300;SDS011;25019;42.626;23.380;2024-03-29T11:25:42;3.13;;;1.03;;
39300;SDS011;25019;42.626;23.380;2024-03-29T11:28:12;3.33;;;1.17;;
39300;SDS011;25019;42.626;23.380;2024-03-29T11:30:42;5.20;;;1.10;;
39300;SDS011;25019;42.626;23.380;2024-03-29T11:36:22;3.23;;;1.00;;
39300;SDS011;25019;42.626;23.380;2024-03-29T11:38:50;2.70;;;1.10;;
39300;SDS011;25019;42.626;23.380;2024-03-29T11:41:17;4.23;;;1.20;;
39300;SDS011;25019;42.626;23.380;2024-03-29T11:43:45;3.90;;;1.20;;
39300;SDS011;25019;42.626;23.380;2024-03-29T11:46:13;4.93;;;1.20;;
39300;SDS011;25019;42.626;23.380;2024-03-29T11:48:40;8.80;;;1.23;;
39300;SDS011;25019;42.626;23.380;2024-03-29T11:51:07;2.83;;;0.70;;
39300;SDS011;25019;42.626;23.380;2024-03-29T11:53:35;1.90;;;1.17;;
39300;SDS011;25019;42.626;23.380;2024-03-29T11:56:01;2.20;;;1.13;;
39300;SDS011;25019;42.626;23.380;2024-03-29T11:58:29;5.77;;;0.90;;
39300;SDS011;25019;42.626;23.380;2024-03-29T12:00:56;2.57;;;0.97;;
39300;SDS011;25019;42.626;23.380;2024-03-29T12:03:23;3.87;;;1.23;;
39300;SDS011;25019;42.626;23.380;2024-03-29T12:05:51;3.57;;;0.90;;
39300;SDS011;25019;42.626;23.380;2024-03-29T12:08:20;4.30;;;1.40;;
39300;SDS011;25019;42.626;23.380;2024-03-29T12:10:46;6.53;;;1.20;;
39300;SDS011;25019;42.626;23.380;2024-03-29T12:13:15;5.40;;;1.17;;
39300;SDS011;25019;42.626;23.380;2024-03-29T12:15:41;2.57;;;0.80;;
39300;SDS011;25019;42.626;23.380;2024-03-29T12:18:07;1.87;;;0.80;;
39300;SDS011;25019;42.626;23.380;2024-03-29T12:20:33;5.00;;;0.97;;
39300;SDS011;25019;42.626;23.380;2024-03-29T12:23:06;3.80;;;0.83;;
39300;SDS011;25019;42.626;23.380;2024-03-29T12:25:33;3.77;;;1.00;;
39300;SDS011;25019;42.626;23.380;2024-03-29T12:28:01;4.13;;;1.33;;
39300;SDS011;25019;42.626;23.380;2024-03-29T12:30:27;3.33;;;1.00;;
39300;SDS011;25019;42.626;23.380;2024-03-29T12:35:32;5.30;;;1.00;;
39300;SDS011;25019;42.626;23.380;2024-03-29T12:37:59;3.83;;;0.93;;
39300;SDS011;25019;42.626;23.380;2024-03-29T12:40:26;3.93;;;0.90;;
39300;SDS011;25019;42.626;23.380;2024-03-29T12:42:55;2.60;;;0.90;;
39300;SDS011;25019;42.626;23.380;2024-03-29T12:45:22;9.37;;;1.10;;
39300;SDS011;25019;42.626;23.380;2024-03-29T12:47:49;3.67;;;1.00;;
39300;SDS011;25019;42.626;23.380;2024-03-29T12:50:19;2.30;;;0.83;;
39300;SDS011;25019;42.626;23.380;2024-03-29T12:52:52;4.83;;;0.90;;
39300;SDS011;25019;42.626;23.380;2024-03-29T12:55:23;2.83;;;0.80;;
39300;SDS011;25019;42.626;23.380;2024-03-29T12:57:50;6.43;;;0.80;;
39300;SDS011;25019;42.626;23.380;2024-03-29T13:00:19;3.77;;;1.53;;
39300;SDS011;25019;42.626;23.380;2024-03-29T13:02:45;3.40;;;0.80;;
39300;SDS011;25019;42.626;23.380;2024-03-29T13:05:11;6.60;;;1.63;;
39300;SDS011;25019;42.626;23.380;2024-03-29T13:07:37;4.23;;;1.03;;
39300;SDS011;25019;42.626;23.380;2024-03-29T13:10:03;3.10;;;0.80;;
39300;SDS011;25019;42.626;23.380;2024-03-29T13:12:36;4.00;;;0.80;;
39300;SDS011;25019;42.626;23.380;2024-03-29T13:15:14;4.47;;;0.90;;
39300;SDS011;25019;42.626;23.380;2024-03-29T13:17:44;3.03;;;0.87;;
39300;SDS011;25019;42.626;23.380;2024-03-29T13:20:11;4.60;;;0.90;;
39300;SDS011;25019;42.626;23.380;2024-03-29T13:22:37;2.43;;;0.97;;
39300;SDS011;25019;42.626;23.380;2024-03-29T13:25:03;5.67;;;1.03;;
39300;SDS011;25019;42.626;23.380;2024-03-29T13:27:32;3.63;;;1.13;;
39300;SDS011;25019;42.626;23.380;2024-03-29T13:29:58;2.83;;;0.90;;
39300;SDS011;25019;42.626;23.380;2024-03-29T13:32:24;5.87;;;1.20;;
39300;SDS011;25019;42.626;23.380;2024-03-29T13:34:51;7.03;;;0.83;;
39300;SDS011;25019;42.626;23.380;2024-03-29T13:37:17;6.47;;;1.10;;
39300;SDS011;25019;42.626;23.380;2024-03-29T13:39:42;4.67;;;1.10;;
39300;SDS011;25019;42.626;23.380;2024-03-29T13:42:08;5.20;;;0.87;;
39300;SDS011;25019;42.626;23.380;2024-03-29T13:44:33;3.80;;;0.90;;
39300;SDS011;25019;42.626;23.380;2024-03-29T13:46:59;3.47;;;0.97;;
39300;SDS011;25019;42.626;23.380;2024-03-29T13:49:29;2.33;;;0.73;;
39300;SDS011;25019;42.626;23.380;2024-03-29T13:51:57;4.77;;;1.30;;
39300;SDS011;25019;42.626;23.380;2024-03-29T13:54:23;3.93;;;1.23;;
39300;SDS011;25019;42.626;23.380;2024-03-29T13:56:49;2.90;;;1.00;;
39300;SDS011;25019;42.626;23.380;2024-03-29T13:59:15;3.47;;;1.07;;
39300;SDS011;25019;42.626;23.380;2024-03-29T14:01:40;6.07;;;1.30;;
39300;SDS011;25019;42.626;23.380;2024-03-29T14:04:06;4.90;;;1.27;;
39300;SDS011;25019;42.626;23.380;2024-03-29T14:06:32;7.40;;;0.90;;
39300;SDS011;25019;42.626;23.380;2024-03-29T14:08:58;2.40;;;1.13;;
39300;SDS011;25019;42.626;23.380;2024-03-29T14:11:23;4.87;;;1.00;;
39300;SDS011;25019;42.626;23.380;2024-03-29T14:13:49;2.83;;;1.20;;
39300;SDS011;25019;42.626;23.380;2024-03-29T14:16:21;5.97;;;1.07;;
39300;SDS011;25019;42.626;23.380;2024-03-29T14:18:47;4.23;;;0.80;;
39300;SDS011;25019;42.626;23.380;2024-03-29T14:21:13;5.17;;;1.20;;
39300;SDS011;25019;42.626;23.380;2024-03-29T14:23:38;3.73;;;0.87;;
39300;SDS011;25019;42.626;23.380;2024-03-29T14:26:05;2.60;;;0.93;;
39300;SDS011;25019;42.626;23.380;2024-03-29T14:28:31;5.07;;;1.13;;
39300;SDS011;25019;42.626;23.380;2024-03-29T14:30:57;4.43;;;1.17;;
39300;SDS011;25019;42.626;23.380;2024-03-29T14:33:22;6.73;;;1.10;;
39300;SDS011;25019;42.626;23.380;2024-03-29T14:35:48;5.53;;;0.90;;
39300;SDS011;25019;42.626;23.380;2024-03-29T14:38:15;2.80;;;1.37;;